India Meteorological Department
Airport METARs
Date : 18-12-2018
Sl. # Airport METAR
1 Agartala VEAT 181000Z 01003KT 3500 RA SCT008 SCT016 OVC090 18/17 Q1013 NOSIG=
2 Ahmedabad VAAH 181000Z 06005KT 6000 NSC 26/04 Q1016 NOSIG=
3 Allahabad VEAB 181000Z 27003KT 5000 HZ SKC 24/09 Q1016 NOSIG=
4 Amritsar VIAR 181000Z 28006KT 3500 HZ NSC 21/05 Q1017 NOSIG=
5 Aurangabad VAAU 180900Z 00000 4000 HZ NSC 26/10 Q1016 NOSIG=
6 Bangalore VOBL 181000Z 32006KT 270V040 CAVOK 26/08 Q1015 NOSIG=
7 Baroda VABO 181000Z 06005KT 6000 NSC 27/08 Q1014 NOSIG=
8 Bhopal VABP 181000Z 05002KT 5000 HZ 21/06 Q1018 NOSIG=
9 Bhubaneswar VEBS 181000Z 02004KT 5000 HZ FEW010 SCT018 BKN100 18/17 Q1014 NOSIG=
10 Chennai VOMM 181000Z 05008KT 3000 HZ NSC 28/22 Q1011 NOSIG=
11 Coimbatore VOCB 181000Z 05006KT 6000 FEW015 32/12 Q1011 NOSIG=
12 Colombo VCBI 181010Z 28004KT 8000 NSC 29/23 Q1009 NOSIG=
13 Delhi VIDP 181000Z 29007KT 2500 HZ NSC 21/07 Q1017 BECMG 3000 HZ=
14 Dehradun VIDN 181000Z 23005KT 6000 NSC 21/05 Q1016=
15 Gauhati VEGT 181000Z 06005KT 2000 -RA FEW010 SCT016 OVC080 16/16 Q1015 NOSIG=
16 Gaya VEGY 181000Z 06007KT 2200 BR SCT018 BKN100 18/14 Q1017 NOSIG=
17 Goa VOGO 181000Z 32009KT 6000 FEW100 SCT220 29/18 Q1010 NOSIG=
18 Fursatganj VERB 181000Z 27003KT 5000 HZ NSC 24/08 Q1015=
19 Hyderabad VOHS 181000Z 01006KT 4000 -DZ BKN010 BKN015 OVC080 19/17 Q1016 NOSIG=
20 Imphal VEIM 181000Z 07003KT 3000 - RA FEW010 SCT018 BKN090 15/14 Q1014 NOSIG=
21 Indore VAID 180900Z 00505KT 3000 HZ NSC 22/07 Q1018 NOSIG=
22 Jabalpur VAJB 180900Z 00000KT 3000 HZ SCT030 20/11 Q1017=
23 Jaipur VIJP 181000Z 25006KT 4000 HZ NSC 23/M03 Q1018 NOSIG=
24 Kochi VOCI 181000Z 25009KT 5000 HZ FEW015 SCT080 31/23 Q1009 NOSIG=
25 Kolkata VECC 181000Z 34007KT 3100 HZ SCT018 BKN090 17/15 Q1013 BECMG 3000 HZ=
26 Kozhikode VOCL 181000Z 25006KT 7000 NSC 32/19 Q1009 NOSIG=
27 Lucknow VILK 181000Z 22003KT 3000 HZ NSC 24/07 Q1016 NOSIG=
28 Ludhiana VILD 181000Z 30003KT 3000 HZ NSC 21/00 Q1017 =
29 Madurai VOMD 181000Z 05002KT 5000 HZ FEW020 33/18 Q1010 NOSIG=
30 Mohanbari VEMN 181000Z 01004KT 1300 RA SCT008 SCT018 FEW025CB OVC090 18/17 Q1016 TEMPO 0800 RA =
31 Mumbai VABB 181000Z 26009KT 3500 FU NSC 30/16 Q1012 NOSIG=
32 Nagpur VANP 181000Z 30003KT 5000 HZ SCT020 23/13 Q1016 NOSIG=
33 Ozar VAOZ 181000Z 05005KT 8000 NSC 26/08 Q1016 NOSIG=
34 Patna VEPT 181000Z 00000KT 2000 HZ SCT020 BKN100 20/13 Q1016 NOSIG=
35 Raipur VERP 180930Z 05006KT 6000 BKN020 BKN100 19/16 Q1016 NOSIG=
36 Safdarjung VIDD 181000Z 25006KT 3000 HZ NSC 22/10 Q1017 NOSIG=
37 Surat VASU 181000Z 08004KT 6000 NSC 30/11 Q1013=
38 Ranchi VERC 181000Z 05003KT 3500 HZ SCT015 BKN100 15/14 Q1017 NOSIG=
39 Trichy VOTR 181000Z 08007KT 3000 HZ FEW015 32/21 Q1009 NOSIG=
40 Trivandrum VOTV 181000Z 32011KT 6000 FEW015 31/24 Q1008 NOSIG=
41 Udaipur VAUD 181000Z 06003KT 3000 HZ NSC 22/05 Q1018 NOSIG=
42 Vizag VOVZ 181000Z 08005KT 6000 SCT014 OVC070 23/19 Q1011 TEMPO 5000 -DZ =
43 Male VRMM 181000Z 35004KT 9999 FEW018 SCT280 30/23 Q1010 NOSIG=
44 Gan VRMG 180900Z 01004KT 9999 FEW018TCU SCT120 BKN250 31/25 Q1010 NOSIG=
45 Kathmandu VNKT 181020Z 29008KT 250V320 8000 FEW015 SCT030 14/05 Q1018 NOSIG=
46 Dhaka VGHS 181000Z 01005KT 3500 HZ BKN010 OVC090 19/16 Q1013 TEMPO RA=
47 Colombo VCBI 181010Z 28004KT 8000 NSC 29/23 Q1009 NOSIG=
48 Karachi OPKC 180955Z 36007KT 7000 NSC 26/M04 Q1019 NOSIG=
49 Lahore OPLA 180955Z 28006KT 5000 HZ NSC 22/01 Q1018 NOSIG RMK QFE992 RMK A30.04=
50 Leh VILH 181000Z VRB01KT 9999 SKC 04/-2 Q1032 NOSIG=
51 Sri Nagar VISR 181000Z VRB02KT 3500 FU FEW200 09/-2 Q1026 NOSIG=
52 Jammu VIJU 181000Z VRB02KT 6000 FEW250 21/06 Q1017 NOSIG=
53 Jodhpur VIJO 181000Z 07004KT 9999 SKC 25/-6 Q1018 NOSIG=
54 Jaisalmer VIJR 181000Z VRB01KT 6000 SKC 25/-6 Q1018 NOSIG=
55 Bhuj-Rudra VABJ 181000Z VRB02KT 6000 SKC 27/-1 Q1017 NOSIG=
56 Gorakhpur VEGK 181000Z 20003KT 5000 HZ FEW100 23/10 Q1016 NOSIG=
57 Agra VIAG 181000Z 30006KT 5000 HZ SKC 21/06 Q1017 NOSIG=
58 Bagdogra VEBD 181000Z VRB02KT 5000 BR SCT030 BKN080 17/15 Q1015 NOSIG=
59 Gwalior VIGR 181000Z 31006KT 6000 SKC 22/04 Q1018 NOSIG=
60 Pune VAPO 181000Z 03006KT 6000 FEW040 26/10 Q1016 NOSIG=
61 Chandigarh VICG 181000Z 30004KT 5000 HZ SKC 21/07 Q1017 NOSIG=
62 Jamnagar VAJM 181000Z 35010KT 6000 SKC 25/08 Q1016 NOSIG=

 

--- End of List ---